createdAt,value
2022-08-05T00:00:25.892Z,0.00
2022-08-05T00:01:20.930Z,0.00
2022-08-05T00:02:07.726Z,0.00
2022-08-05T00:02:55.637Z,0.00
2022-08-05T00:03:44.520Z,0.00
2022-08-05T00:04:34.510Z,0.00
2022-08-05T00:06:01.646Z,0.00
2022-08-05T00:06:29.371Z,0.00
2022-08-05T00:07:26.901Z,0.00
2022-08-05T00:08:00.765Z,0.00
2022-08-05T00:08:45.466Z,0.00
2022-08-05T00:09:34.460Z,0.00
2022-08-05T00:10:27.122Z,0.00
2022-08-05T00:11:20.526Z,0.00
2022-08-05T00:12:05.449Z,0.00
2022-08-05T00:12:56.841Z,0.00
2022-08-05T00:13:44.428Z,0.00
2022-08-05T00:14:35.421Z,0.00
2022-08-05T00:15:55.301Z,0.00
2022-08-05T00:16:15.397Z,0.00
2022-08-05T00:17:04.390Z,0.00
2022-08-05T00:17:55.372Z,0.00
2022-08-05T00:18:44.475Z,0.00
2022-08-05T00:19:45.516Z,0.00
2022-08-05T00:20:28.954Z,0.00
2022-08-05T00:21:14.713Z,0.00
2022-08-05T00:22:04.493Z,0.00
2022-08-05T00:22:59.657Z,0.00
2022-08-05T00:23:46.812Z,0.00
2022-08-05T00:24:35.309Z,0.00
2022-08-05T00:25:24.294Z,0.00
2022-08-05T00:26:14.289Z,0.00
2022-08-05T00:27:04.758Z,0.00
2022-08-05T00:27:55.390Z,0.00
2022-08-05T00:28:44.259Z,0.00
2022-08-05T00:29:38.214Z,0.00
2022-08-05T00:30:28.960Z,0.00
2022-08-05T00:31:15.240Z,0.00
2022-08-05T00:32:12.742Z,0.00
2022-08-05T00:32:55.219Z,0.00
2022-08-05T00:34:54.018Z,0.00
2022-08-05T00:34:56.488Z,0.00
2022-08-05T00:35:25.244Z,0.00
2022-08-05T00:36:18.529Z,0.00
2022-08-05T00:37:09.986Z,0.00
2022-08-05T00:37:55.192Z,0.00
2022-08-05T00:38:44.166Z,0.00
2022-08-05T00:39:41.332Z,0.00
2022-08-05T00:40:27.750Z,0.00
2022-08-05T00:41:14.130Z,0.00
2022-08-05T00:42:04.131Z,0.00
2022-08-05T00:42:54.117Z,0.00
2022-08-05T00:43:46.990Z,0.00
2022-08-05T00:44:35.120Z,0.00
2022-08-05T00:45:28.196Z,0.00
2022-08-05T00:46:15.088Z,0.00
2022-08-05T00:47:05.889Z,0.00
2022-08-05T00:47:57.795Z,0.00
2022-08-05T00:48:50.652Z,0.00
2022-08-05T00:49:51.148Z,0.00
2022-08-05T00:50:25.611Z,0.00
2022-08-05T00:51:50.341Z,0.00
2022-08-05T00:52:05.030Z,0.00
2022-08-05T00:52:55.313Z,0.00
2022-08-05T00:54:00.547Z,0.00
2022-08-05T00:54:35.000Z,0.00
2022-08-05T00:55:42.274Z,0.00
2022-08-05T00:56:17.366Z,0.00
2022-08-05T00:57:04.998Z,0.00
2022-08-05T00:57:58.431Z,0.00
2022-08-05T00:58:45.126Z,0.00
2022-08-05T00:59:42.058Z,0.00
2022-08-05T01:00:25.950Z,0.00
2022-08-05T01:01:13.996Z,0.00
2022-08-05T01:02:03.967Z,0.00
2022-08-05T01:02:53.921Z,0.00
2022-08-05T01:03:43.920Z,0.00
2022-08-05T01:04:34.900Z,0.00
2022-08-05T01:05:23.902Z,0.00
2022-08-05T01:06:15.262Z,0.00
2022-08-05T01:07:05.228Z,0.00
2022-08-05T01:08:30.647Z,0.00
2022-08-05T01:08:47.228Z,0.00
2022-08-05T01:09:33.851Z,0.00
2022-08-05T01:10:25.775Z,0.00
2022-08-05T01:11:13.880Z,0.00
2022-08-05T01:12:09.111Z,0.00
2022-08-05T01:13:05.308Z,0.00
2022-08-05T01:13:58.642Z,0.00
2022-08-05T01:14:34.807Z,0.00
2022-08-05T01:15:36.198Z,0.00
2022-08-05T01:16:14.789Z,0.00
2022-08-05T01:17:05.271Z,0.00
2022-08-05T01:17:54.251Z,0.00
2022-08-05T01:18:48.128Z,0.00
2022-08-05T01:19:57.042Z,0.00
2022-08-05T01:20:24.751Z,0.00
2022-08-05T01:21:13.751Z,0.00
2022-08-05T01:22:04.730Z,0.00
2022-08-05T01:22:53.730Z,0.00
2022-08-05T01:23:43.718Z,0.00
2022-08-05T01:24:34.728Z,0.00
2022-08-05T01:25:23.698Z,0.00
2022-08-05T01:26:14.680Z,0.00
2022-08-05T01:27:17.492Z,0.00
2022-08-05T01:27:55.570Z,0.00
2022-08-05T01:28:43.668Z,0.00
2022-08-05T01:29:34.928Z,0.00
2022-08-05T01:30:34.257Z,0.00
2022-08-05T01:31:14.630Z,0.00
2022-08-05T01:32:03.648Z,0.00
2022-08-05T01:32:53.620Z,0.00
2022-08-05T01:33:48.891Z,0.00
2022-08-05T01:34:35.885Z,0.00
2022-08-05T01:35:52.213Z,0.00
2022-08-05T01:36:16.030Z,0.00
2022-08-05T01:37:03.579Z,0.00
2022-08-05T01:37:54.607Z,0.00
2022-08-05T01:38:43.560Z,0.00
2022-08-05T01:39:46.685Z,0.00
2022-08-05T01:40:29.033Z,0.00
2022-08-05T01:41:13.529Z,0.00
2022-08-05T01:42:03.534Z,0.00
2022-08-05T01:42:53.510Z,0.00
2022-08-05T01:43:43.520Z,0.00
2022-08-05T01:44:35.524Z,0.00
2022-08-05T01:45:23.509Z,0.00
2022-08-05T01:46:41.491Z,0.00
2022-08-05T01:47:05.190Z,0.00
2022-08-05T01:47:54.453Z,0.00
2022-08-05T01:48:43.459Z,0.00
2022-08-05T01:50:01.535Z,0.00
2022-08-05T01:50:28.611Z,0.00
2022-08-05T01:51:14.447Z,0.00
2022-08-05T01:52:17.707Z,0.00
2022-08-05T01:52:54.436Z,0.00
2022-08-05T01:53:57.199Z,0.00
2022-08-05T01:54:34.390Z,0.00
2022-08-05T01:55:24.389Z,0.00
2022-08-05T01:56:13.379Z,0.00
2022-08-05T01:58:10.214Z,0.00
2022-08-05T01:58:13.191Z,0.00
2022-08-05T01:58:45.431Z,0.00
2022-08-05T01:59:33.340Z,0.00
2022-08-05T02:00:29.998Z,0.00
2022-08-05T02:01:14.523Z,0.00
2022-08-05T02:02:03.419Z,0.00
2022-08-05T02:02:55.028Z,0.00
2022-08-05T02:03:43.309Z,0.00
2022-08-05T02:04:33.309Z,0.00
2022-08-05T02:05:23.401Z,0.00
2022-08-05T02:06:37.478Z,0.00
2022-08-05T02:07:04.268Z,0.00
2022-08-05T02:08:00.067Z,0.00
2022-08-05T02:08:54.897Z,0.00
2022-08-05T02:09:34.250Z,0.00
2022-08-05T02:10:28.362Z,0.00
2022-08-05T02:11:14.238Z,0.00
2022-08-05T02:12:04.218Z,0.00
2022-08-05T02:12:53.199Z,0.00
2022-08-05T02:13:53.328Z,0.00
2022-08-05T02:14:34.199Z,0.00
2022-08-05T02:15:23.200Z,0.00
2022-08-05T02:16:16.555Z,0.00
2022-08-05T02:17:03.171Z,0.00
2022-08-05T02:18:27.510Z,0.00
2022-08-05T02:18:44.146Z,0.00
2022-08-05T02:19:34.334Z,0.00
2022-08-05T02:20:23.128Z,0.00
2022-08-05T02:21:15.378Z,0.00
2022-08-05T02:22:03.108Z,0.00
2022-08-05T02:22:53.097Z,0.00
2022-08-05T02:23:43.089Z,0.00
2022-08-05T02:24:33.098Z,0.00
2022-08-05T02:25:23.075Z,0.00
2022-08-05T02:26:13.068Z,0.00
2022-08-05T02:27:09.943Z,0.00
2022-08-05T02:27:59.252Z,0.00
2022-08-05T02:28:46.022Z,0.00
2022-08-05T02:29:59.152Z,0.00
2022-08-05T02:30:24.037Z,0.00
2022-08-05T02:31:14.421Z,0.00
2022-08-05T02:32:04.639Z,0.00
2022-08-05T02:32:52.989Z,0.00
2022-08-05T02:33:42.990Z,0.00
2022-08-05T02:34:32.969Z,0.00
2022-08-05T02:35:27.958Z,0.00
2022-08-05T02:36:15.360Z,0.00
2022-08-05T02:37:02.958Z,0.00
2022-08-05T02:37:54.173Z,0.00
2022-08-05T02:38:42.947Z,0.00
2022-08-05T02:39:33.023Z,0.00
2022-08-05T02:40:22.919Z,0.00
2022-08-05T02:41:17.163Z,0.00
2022-08-05T02:42:03.914Z,0.00
2022-08-05T02:42:54.030Z,0.00
2022-08-05T02:44:02.680Z,0.00
2022-08-05T02:44:33.866Z,0.00
2022-08-05T02:45:23.961Z,0.00
2022-08-05T02:46:16.311Z,0.00
2022-08-05T02:47:02.860Z,0.00
2022-08-05T02:48:12.110Z,0.00
2022-08-05T02:48:43.827Z,0.00
2022-08-05T02:49:36.852Z,0.00
2022-08-05T02:50:22.807Z,0.00
2022-08-05T02:51:12.798Z,0.00
2022-08-05T02:52:04.623Z,0.00
2022-08-05T02:52:52.788Z,0.00
2022-08-05T02:53:42.768Z,0.00
2022-08-05T02:54:36.433Z,0.00
2022-08-05T02:55:55.079Z,0.00
2022-08-05T02:56:15.972Z,0.00
2022-08-05T02:57:03.765Z,0.00
2022-08-05T02:58:11.929Z,0.00
2022-08-05T02:58:43.913Z,0.00
2022-08-05T02:59:34.582Z,0.00
2022-08-05T03:00:24.802Z,0.00
2022-08-05T03:01:12.756Z,0.00
2022-08-05T03:02:02.812Z,0.00
2022-08-05T03:02:52.668Z,0.00
2022-08-05T03:04:03.061Z,0.00
2022-08-05T03:04:33.689Z,0.00
2022-08-05T03:06:55.959Z,0.00
2022-08-05T03:06:57.087Z,0.00
2022-08-05T03:07:03.637Z,0.00
2022-08-05T03:08:06.766Z,0.00
2022-08-05T03:08:43.607Z,0.00
2022-08-05T03:09:37.519Z,0.00
2022-08-05T03:10:24.847Z,0.00
2022-08-05T03:11:55.693Z,0.00
2022-08-05T03:12:03.587Z,0.00
2022-08-05T03:12:52.576Z,0.00
2022-08-05T03:13:52.222Z,0.00
2022-08-05T03:14:33.538Z,0.00
2022-08-05T03:15:23.747Z,0.00
2022-08-05T03:16:12.527Z,0.00
2022-08-05T03:17:06.100Z,0.00
2022-08-05T03:17:54.009Z,0.00
2022-08-05T03:18:42.506Z,0.00
2022-08-05T03:19:34.108Z,0.00
2022-08-05T03:20:22.487Z,0.00
2022-08-05T03:21:12.488Z,0.00
2022-08-05T03:22:02.469Z,0.00
2022-08-05T03:22:52.460Z,0.00
2022-08-05T03:23:42.456Z,0.00
2022-08-05T03:24:32.437Z,0.00
2022-08-05T03:25:33.587Z,0.00
2022-08-05T03:26:32.152Z,0.00
2022-08-05T03:27:03.417Z,0.00
2022-08-05T03:27:59.320Z,0.00
2022-08-05T03:28:43.397Z,0.00
2022-08-05T03:29:45.256Z,0.00
2022-08-05T03:30:28.705Z,0.00
2022-08-05T03:31:41.499Z,0.00
2022-08-05T03:32:03.378Z,0.00
2022-08-05T03:32:52.351Z,0.00
2022-08-05T03:33:52.951Z,0.00
2022-08-05T03:34:33.337Z,0.00
2022-08-05T03:35:22.328Z,0.00
2022-08-05T03:36:12.383Z,0.00
2022-08-05T03:37:02.317Z,0.00
2022-08-05T03:37:53.534Z,0.00
2022-08-05T03:38:42.297Z,0.00
2022-08-05T03:39:38.214Z,0.00
2022-08-05T03:40:31.152Z,0.00
2022-08-05T03:41:13.287Z,0.00
2022-08-05T03:42:02.270Z,0.00
2022-08-05T03:42:52.927Z,0.00
2022-08-05T03:44:08.853Z,0.00
2022-08-05T03:44:33.227Z,0.00
2022-08-05T03:45:23.552Z,0.00
2022-08-05T03:46:12.207Z,0.00
2022-08-05T03:47:02.236Z,0.00
2022-08-05T03:47:57.247Z,0.00
2022-08-05T03:48:45.426Z,0.00
2022-08-05T03:49:51.813Z,0.00
2022-08-05T03:50:23.166Z,0.00
2022-08-05T03:52:38.089Z,0.00
2022-08-05T03:52:48.553Z,0.00
2022-08-05T03:55:49.905Z,0.00
2022-08-05T03:55:50.984Z,0.00
2022-08-05T03:55:51.763Z,0.00
2022-08-05T03:56:04.637Z,0.00
2022-08-05T03:56:27.831Z,0.00
2022-08-05T03:57:03.103Z,0.00
2022-08-05T03:57:53.096Z,0.00
2022-08-05T03:58:42.077Z,0.00
2022-08-05T03:59:46.533Z,0.00
2022-08-05T04:00:23.076Z,0.00
2022-08-05T04:01:13.052Z,0.00
2022-08-05T04:02:02.080Z,0.00
2022-08-05T04:02:58.587Z,0.00
2022-08-05T04:04:09.501Z,0.00
2022-08-05T04:04:33.016Z,0.00
2022-08-05T04:05:23.118Z,5.62
2022-08-05T04:06:11.996Z,5.62
2022-08-05T04:07:01.994Z,5.62
2022-08-05T04:07:58.660Z,5.62
2022-08-05T04:08:42.977Z,5.62
2022-08-05T04:09:36.556Z,5.62
2022-08-05T04:10:21.974Z,5.62
2022-08-05T04:11:11.947Z,5.62
2022-08-05T04:12:01.950Z,5.62
2022-08-05T04:12:51.947Z,11.25
2022-08-05T04:13:50.919Z,11.25
2022-08-05T04:14:32.925Z,11.25
2022-08-05T04:15:24.576Z,11.25
2022-08-05T04:16:11.906Z,11.25
2022-08-05T04:17:02.136Z,11.25
2022-08-05T04:17:56.556Z,11.25
2022-08-05T04:18:42.885Z,11.25
2022-08-05T04:19:31.864Z,11.25
2022-08-05T04:20:23.227Z,11.25
2022-08-05T04:21:11.845Z,11.25
2022-08-05T04:22:05.736Z,16.88
2022-08-05T04:22:52.827Z,16.88
2022-08-05T04:24:05.851Z,22.50
2022-08-05T04:24:32.812Z,22.50
2022-08-05T04:25:38.350Z,28.12
2022-08-05T04:26:12.793Z,33.75
2022-08-05T04:27:01.775Z,33.75
2022-08-05T04:27:57.363Z,39.38
2022-08-05T04:28:50.736Z,39.38
2022-08-05T04:29:32.799Z,39.38
2022-08-05T04:30:21.763Z,39.38
2022-08-05T04:31:11.744Z,39.38
2022-08-05T04:32:01.744Z,39.38
2022-08-05T04:32:51.734Z,39.38
2022-08-05T04:33:54.525Z,39.38
2022-08-05T04:34:35.176Z,33.75
2022-08-05T04:35:21.696Z,33.75
2022-08-05T04:36:45.930Z,33.75
2022-08-05T04:37:03.146Z,33.75
2022-08-05T04:38:02.842Z,28.12
2022-08-05T04:38:42.685Z,28.12
2022-08-05T04:39:32.694Z,28.12
2022-08-05T04:40:21.644Z,22.50
2022-08-05T04:41:11.636Z,22.50
2022-08-05T04:42:01.780Z,22.50
2022-08-05T04:42:51.625Z,16.88
2022-08-05T04:43:48.250Z,16.88
2022-08-05T04:44:32.622Z,16.88
2022-08-05T04:45:23.053Z,16.88
2022-08-05T04:46:12.586Z,16.88
2022-08-05T04:47:09.599Z,16.88
2022-08-05T04:47:52.574Z,16.88
2022-08-05T04:48:41.595Z,22.50
2022-08-05T04:49:38.977Z,22.50
2022-08-05T04:50:34.653Z,28.12
2022-08-05T04:51:12.536Z,33.75
2022-08-05T04:52:01.524Z,39.38
2022-08-05T04:52:51.524Z,39.38
2022-08-05T04:53:41.535Z,39.38
2022-08-05T04:54:31.504Z,39.38
2022-08-05T04:56:14.874Z,39.38
2022-08-05T04:56:33.627Z,39.38
2022-08-05T04:57:02.477Z,39.38
2022-08-05T04:57:54.085Z,39.38
2022-08-05T04:58:41.471Z,39.38
2022-08-05T04:59:39.261Z,45.00
2022-08-05T05:00:23.455Z,45.00
2022-08-05T05:01:11.457Z,45.00
2022-08-05T05:02:07.982Z,50.62
2022-08-05T05:02:52.519Z,56.25
2022-08-05T05:03:42.280Z,56.25
2022-08-05T05:04:31.405Z,61.88
2022-08-05T05:05:28.476Z,61.88
2022-08-05T05:06:39.694Z,61.88
2022-08-05T05:07:02.435Z,61.88
2022-08-05T05:07:52.932Z,61.88
2022-08-05T05:08:42.759Z,61.88
2022-08-05T05:09:31.355Z,67.50
2022-08-05T05:10:21.336Z,67.50
2022-08-05T05:11:11.335Z,67.50
2022-08-05T05:12:03.135Z,67.50
2022-08-05T05:12:51.333Z,67.50
2022-08-05T05:13:43.384Z,61.88
2022-08-05T05:14:32.279Z,61.88
2022-08-05T05:15:54.335Z,61.88
2022-08-05T05:16:12.282Z,56.25
2022-08-05T05:17:01.275Z,56.25
2022-08-05T05:17:56.840Z,56.25
2022-08-05T05:18:52.417Z,56.25
2022-08-05T05:19:36.568Z,56.25
2022-08-05T05:20:22.234Z,56.25
2022-08-05T05:21:12.234Z,56.25
2022-08-05T05:22:06.260Z,56.25
2022-08-05T05:22:52.245Z,56.25
2022-08-05T05:24:03.696Z,61.88
2022-08-05T05:24:57.526Z,61.88
2022-08-05T05:25:22.199Z,61.88
2022-08-05T05:26:12.183Z,61.88
2022-08-05T05:27:01.164Z,67.50
2022-08-05T05:27:54.014Z,67.50
2022-08-05T05:28:42.785Z,67.50
2022-08-05T05:29:41.079Z,73.12
2022-08-05T05:30:30.802Z,73.12
2022-08-05T05:31:12.133Z,73.12
2022-08-05T05:32:01.122Z,73.12
2022-08-05T05:32:51.116Z,73.12
2022-08-05T05:33:58.665Z,78.75
2022-08-05T05:34:32.095Z,78.75
2022-08-05T05:35:21.195Z,84.38
2022-08-05T05:36:11.091Z,84.38
2022-08-05T05:37:01.075Z,90.00
2022-08-05T05:38:00.322Z,90.00
2022-08-05T05:38:42.045Z,95.62
2022-08-05T05:39:32.888Z,95.62
2022-08-05T05:40:21.032Z,95.62
2022-08-05T05:41:12.283Z,101.25
2022-08-05T05:42:01.014Z,101.25
2022-08-05T05:42:51.013Z,106.88
2022-08-05T05:43:58.461Z,106.88
2022-08-05T05:44:36.631Z,112.50
2022-08-05T05:45:21.984Z,112.50
2022-08-05T05:46:17.598Z,118.12
2022-08-05T05:47:03.960Z,123.75
2022-08-05T05:48:06.575Z,123.75
2022-08-05T05:48:41.961Z,123.75
2022-08-05T05:49:30.945Z,123.75
2022-08-05T05:50:20.924Z,123.75
2022-08-05T05:51:15.610Z,118.12
2022-08-05T05:52:05.846Z,118.12
2022-08-05T05:52:51.904Z,118.12
2022-08-05T05:53:54.092Z,118.12
2022-08-05T05:54:49.863Z,118.12
2022-08-05T05:55:21.904Z,118.12
2022-08-05T05:56:11.148Z,118.12
2022-08-05T05:57:00.866Z,123.75
2022-08-05T05:57:52.262Z,123.75
2022-08-05T05:58:40.851Z,123.75
2022-08-05T05:59:30.862Z,123.75
2022-08-05T06:00:21.844Z,123.75
2022-08-05T06:01:15.330Z,123.75
2022-08-05T06:02:01.304Z,129.38
2022-08-05T06:02:50.815Z,129.38
2022-08-05T06:04:01.181Z,129.38
2022-08-05T06:04:31.842Z,129.38
2022-08-05T06:05:20.881Z,129.38
2022-08-05T06:06:10.784Z,135.00
2022-08-05T06:07:01.481Z,135.00
2022-08-05T06:08:01.473Z,135.00
2022-08-05T06:08:41.765Z,135.00
2022-08-05T06:10:01.503Z,135.00
2022-08-05T06:10:21.731Z,140.62
2022-08-05T06:11:10.725Z,140.62
2022-08-05T06:12:01.622Z,146.25
2022-08-05T06:12:50.712Z,151.88
2022-08-05T06:13:53.736Z,157.50
2022-08-05T06:14:31.709Z,163.12
2022-08-05T06:15:24.071Z,168.75
2022-08-05T06:16:28.597Z,174.38
2022-08-05T06:17:01.825Z,180.00
2022-08-05T06:17:53.048Z,185.62
2022-08-05T06:18:40.645Z,191.25
2022-08-05T06:19:35.246Z,191.25
2022-08-05T06:20:21.904Z,196.88
2022-08-05T06:21:16.624Z,208.12
2022-08-05T06:22:01.794Z,208.12
2022-08-05T06:22:50.606Z,208.12
2022-08-05T06:23:44.214Z,196.88
2022-08-05T06:24:30.590Z,191.25
2022-08-05T06:25:59.121Z,196.88
2022-08-05T06:26:21.272Z,202.50
2022-08-05T06:27:01.573Z,208.12
2022-08-05T06:28:08.974Z,213.75
2022-08-05T06:28:41.534Z,213.75
2022-08-05T06:29:49.446Z,202.50
2022-08-05T06:30:21.557Z,196.88
2022-08-05T06:31:11.228Z,191.25
2022-08-05T06:32:01.504Z,185.62
2022-08-05T06:32:50.778Z,185.62
2022-08-05T06:34:06.985Z,185.62
2022-08-05T06:34:31.473Z,185.62
2022-08-05T06:36:04.190Z,185.62
2022-08-05T06:36:11.455Z,185.62
2022-08-05T06:37:00.461Z,185.62
2022-08-05T06:37:57.464Z,180.00
2022-08-05T06:38:43.058Z,180.00
2022-08-05T06:39:31.446Z,180.00
2022-08-05T06:40:21.007Z,185.62
2022-08-05T06:41:11.704Z,191.25
2022-08-05T06:42:00.401Z,202.50
2022-08-05T06:42:51.983Z,213.75
2022-08-05T06:43:58.933Z,219.38
2022-08-05T06:44:31.374Z,225.00
2022-08-05T06:45:21.046Z,213.75
2022-08-05T06:46:10.347Z,196.88
2022-08-05T06:47:02.320Z,191.25
2022-08-05T06:48:44.223Z,180.00
2022-08-05T06:48:55.682Z,168.75
2022-08-05T06:50:00.238Z,151.88
2022-08-05T06:50:21.294Z,151.88
2022-08-05T06:51:12.036Z,151.88
2022-08-05T06:52:01.255Z,157.50
2022-08-05T06:53:03.717Z,163.12
2022-08-05T06:53:41.245Z,163.12
2022-08-05T06:54:31.234Z,157.50
2022-08-05T06:55:20.235Z,151.88
2022-08-05T06:56:26.035Z,151.88
2022-08-05T06:57:56.948Z,157.50
2022-08-05T06:58:03.232Z,151.88
2022-08-05T06:58:41.698Z,168.75
2022-08-05T06:59:38.513Z,163.12
2022-08-05T07:00:24.565Z,163.12
2022-08-05T07:01:10.201Z,174.38
2022-08-05T07:02:00.155Z,174.38
2022-08-05T07:02:53.610Z,180.00
2022-08-05T07:03:40.116Z,180.00
2022-08-05T07:04:30.106Z,185.62
2022-08-05T07:05:22.334Z,191.25
2022-08-05T07:06:15.228Z,196.88
2022-08-05T07:07:00.082Z,202.50
2022-08-05T07:07:50.096Z,202.50
2022-08-05T07:08:40.062Z,196.88
2022-08-05T07:09:32.397Z,196.88
2022-08-05T07:10:21.045Z,191.25
2022-08-05T07:11:15.562Z,191.25
2022-08-05T07:12:00.675Z,185.62
2022-08-05T07:12:50.023Z,185.62
2022-08-05T07:13:56.719Z,185.62
2022-08-05T07:14:32.210Z,174.38
2022-08-05T07:15:34.477Z,174.38
2022-08-05T07:16:12.018Z,174.38
2022-08-05T07:18:01.163Z,174.38
2022-08-05T07:18:02.422Z,174.38
2022-08-05T07:18:40.937Z,180.00
2022-08-05T07:20:16.876Z,174.38
2022-08-05T07:20:38.793Z,168.75
2022-08-05T07:21:10.914Z,168.75
2022-08-05T07:22:02.408Z,174.38
2022-08-05T07:22:49.887Z,174.38
2022-08-05T07:23:40.602Z,174.38
2022-08-05T07:24:30.901Z,174.38
2022-08-05T07:25:23.487Z,174.38
2022-08-05T07:26:10.855Z,174.38
2022-08-05T07:26:59.836Z,174.38
2022-08-05T07:27:57.197Z,174.38
2022-08-05T07:28:40.824Z,174.38
2022-08-05T07:30:27.164Z,174.38
2022-08-05T07:30:28.014Z,174.38
2022-08-05T07:31:10.796Z,174.38
2022-08-05T07:31:59.786Z,180.00
2022-08-05T07:32:50.941Z,180.00
2022-08-05T07:33:39.756Z,180.00
2022-08-05T07:34:29.774Z,185.62
2022-08-05T07:36:03.566Z,185.62
2022-08-05T07:36:20.916Z,191.25
2022-08-05T07:37:00.736Z,191.25
2022-08-05T07:37:49.717Z,196.88
2022-08-05T07:38:43.575Z,202.50
2022-08-05T07:40:04.454Z,208.12
2022-08-05T07:40:31.478Z,213.75
2022-08-05T07:42:08.031Z,219.38
2022-08-05T07:42:12.993Z,225.00
2022-08-05T07:42:50.679Z,236.25
2022-08-05T07:43:39.668Z,253.12
2022-08-05T07:44:29.638Z,264.38
2022-08-05T07:45:19.637Z,275.62
2022-08-05T07:46:18.189Z,286.88
2022-08-05T07:47:00.636Z,298.12
2022-08-05T07:47:50.606Z,309.38
2022-08-05T07:49:01.973Z,309.38
2022-08-05T07:49:30.588Z,303.75
2022-08-05T07:50:22.610Z,303.75
2022-08-05T07:51:23.651Z,298.12
2022-08-05T07:52:00.566Z,292.50
2022-08-05T07:52:49.567Z,281.25
2022-08-05T07:53:50.236Z,275.62
2022-08-05T07:54:33.618Z,275.62
2022-08-05T07:55:53.597Z,270.00
2022-08-05T07:57:02.577Z,258.75
2022-08-05T07:57:22.718Z,247.50
2022-08-05T07:58:02.488Z,241.88
2022-08-05T07:58:57.190Z,241.88
2022-08-05T07:59:39.058Z,247.50
2022-08-05T08:00:20.517Z,253.12
2022-08-05T08:01:12.080Z,264.38
2022-08-05T08:01:59.515Z,270.00
2022-08-05T08:03:15.061Z,270.00
2022-08-05T08:03:44.494Z,258.75
2022-08-05T08:04:37.467Z,241.88
2022-08-05T08:05:20.419Z,230.62
2022-08-05T08:06:09.409Z,213.75
2022-08-05T08:06:59.589Z,196.88
2022-08-05T08:07:59.617Z,185.62
2022-08-05T08:08:40.379Z,180.00
2022-08-05T08:09:29.367Z,174.38
2022-08-05T08:10:20.613Z,174.38
2022-08-05T08:11:09.350Z,174.38
2022-08-05T08:12:09.038Z,174.38
2022-08-05T08:12:50.370Z,174.38
2022-08-05T08:13:43.013Z,180.00
2022-08-05T08:14:30.309Z,185.62
2022-08-05T08:16:33.404Z,185.62
2022-08-05T08:16:42.986Z,185.62
2022-08-05T08:17:00.289Z,174.38
2022-08-05T08:17:52.886Z,174.38
2022-08-05T08:18:39.280Z,196.88
2022-08-05T08:20:10.308Z,196.88
2022-08-05T08:20:43.477Z,196.88
2022-08-05T08:21:15.965Z,191.25
2022-08-05T08:22:00.250Z,191.25
2022-08-05T08:22:49.220Z,180.00
2022-08-05T08:24:03.054Z,180.00
2022-08-05T08:24:45.958Z,185.62
2022-08-05T08:25:26.406Z,185.62
2022-08-05T08:26:10.180Z,196.88
2022-08-05T08:26:59.181Z,191.25
2022-08-05T08:27:51.389Z,202.50
2022-08-05T08:28:59.144Z,208.12
2022-08-05T08:30:03.817Z,202.50
2022-08-05T08:30:32.770Z,208.12
2022-08-05T08:31:15.126Z,208.12
2022-08-05T08:32:00.120Z,208.12
2022-08-05T08:32:49.118Z,202.50
2022-08-05T08:33:39.107Z,202.50
2022-08-05T08:34:30.719Z,202.50
2022-08-05T08:35:19.276Z,202.50
2022-08-05T08:37:04.988Z,202.50
2022-08-05T08:37:53.516Z,202.50
2022-08-05T08:38:40.051Z,202.50
2022-08-05T08:39:29.106Z,202.50
2022-08-05T08:40:19.137Z,196.88
2022-08-05T08:41:09.043Z,196.88
2022-08-05T08:41:59.926Z,196.88
2022-08-05T08:42:52.413Z,196.88
2022-08-05T08:45:19.143Z,202.50
2022-08-05T08:45:19.857Z,196.88
2022-08-05T08:45:26.775Z,196.88
2022-08-05T08:46:15.462Z,202.50
2022-08-05T08:46:59.974Z,202.50
2022-08-05T08:48:07.138Z,208.12
2022-08-05T08:48:59.365Z,213.75
2022-08-05T08:50:22.405Z,219.38
2022-08-05T08:50:31.696Z,225.00
2022-08-05T08:52:02.218Z,230.62
2022-08-05T08:52:06.405Z,236.25
2022-08-05T08:52:51.786Z,247.50
2022-08-05T08:53:40.247Z,253.12
2022-08-05T08:54:29.882Z,264.38
2022-08-05T08:55:19.623Z,264.38
2022-08-05T08:56:09.861Z,258.75
2022-08-05T08:56:58.852Z,241.88
2022-08-05T08:57:58.226Z,236.25
2022-08-05T08:58:44.277Z,219.38
2022-08-05T08:59:33.424Z,202.50
2022-08-05T09:00:19.444Z,202.50
2022-08-05T09:01:15.894Z,202.50
2022-08-05T09:02:01.123Z,202.50
2022-08-05T09:02:48.783Z,202.50
2022-08-05T09:03:40.696Z,202.50
2022-08-05T09:04:30.640Z,202.50
2022-08-05T09:05:18.763Z,202.50
2022-08-05T09:06:12.134Z,196.88
2022-08-05T09:06:59.752Z,196.88
2022-08-05T09:07:57.348Z,196.88
2022-08-05T09:08:40.185Z,196.88
2022-08-05T09:09:34.877Z,202.50
2022-08-05T09:10:19.819Z,202.50
2022-08-05T09:11:08.733Z,202.50
2022-08-05T09:12:03.359Z,202.50
2022-08-05T09:12:51.033Z,202.50
2022-08-05T09:13:41.433Z,202.50
2022-08-05T09:14:56.457Z,202.50
2022-08-05T09:15:19.654Z,202.50
2022-08-05T09:16:08.663Z,208.12
2022-08-05T09:16:59.635Z,213.75
2022-08-05T09:17:49.798Z,219.38
2022-08-05T09:18:42.796Z,225.00
2022-08-05T09:19:36.364Z,225.00
2022-08-05T09:20:20.926Z,219.38
2022-08-05T09:21:11.434Z,219.38
2022-08-05T09:22:17.690Z,219.38
2022-08-05T09:22:51.829Z,219.38
2022-08-05T09:23:43.690Z,225.00
2022-08-05T09:24:29.544Z,225.00
2022-08-05T09:25:24.303Z,236.25
2022-08-05T09:26:09.535Z,241.88
2022-08-05T09:26:58.720Z,253.12
2022-08-05T09:28:04.564Z,270.00
2022-08-05T09:28:39.526Z,281.25
2022-08-05T09:29:30.942Z,286.88
2022-08-05T09:30:18.503Z,275.62
2022-08-05T09:31:22.614Z,270.00
2022-08-05T09:32:45.847Z,270.00
2022-08-05T09:32:49.989Z,281.25
2022-08-05T09:33:38.484Z,275.62
2022-08-05T09:34:28.436Z,275.62
2022-08-05T09:35:26.817Z,258.75
2022-08-05T09:36:11.777Z,270.00
2022-08-05T09:36:59.968Z,264.38
2022-08-05T09:38:16.513Z,258.75
2022-08-05T09:38:39.416Z,247.50
2022-08-05T09:39:41.961Z,241.88
2022-08-05T09:40:19.416Z,230.62
2022-08-05T09:41:08.367Z,219.38
2022-08-05T09:41:58.587Z,219.38
2022-08-05T09:42:48.476Z,230.62
2022-08-05T09:43:40.461Z,213.75
2022-08-05T09:44:28.336Z,213.75
2022-08-05T09:46:06.299Z,219.38
2022-08-05T09:46:09.317Z,225.00
2022-08-05T09:46:58.314Z,247.50
2022-08-05T09:47:56.211Z,270.00
2022-08-05T09:48:39.306Z,281.25
2022-08-05T09:49:54.354Z,286.88
2022-08-05T09:50:38.871Z,298.12
2022-08-05T09:51:15.031Z,320.62
2022-08-05T09:51:59.257Z,348.75
2022-08-05T09:52:48.247Z,365.62
2022-08-05T09:53:54.348Z,399.38
2022-08-05T09:54:29.558Z,438.75
2022-08-05T09:55:56.479Z,472.50
2022-08-05T09:56:12.903Z,500.62
2022-08-05T09:57:01.659Z,534.38
2022-08-05T09:57:48.199Z,556.88
2022-08-05T09:58:38.189Z,568.12
2022-08-05T09:59:28.180Z,579.38
2022-08-05T10:00:18.168Z,590.62
2022-08-05T10:01:13.482Z,573.75
2022-08-05T10:01:59.159Z,562.50
2022-08-05T10:02:48.208Z,534.38
2022-08-05T10:03:38.774Z,528.75
2022-08-05T10:04:29.452Z,534.38
2022-08-05T10:05:19.119Z,528.75
2022-08-05T10:06:14.834Z,540.00
2022-08-05T10:06:59.932Z,551.25
2022-08-05T10:08:10.915Z,545.62
2022-08-05T10:08:39.079Z,551.25
2022-08-05T10:09:29.647Z,534.38
2022-08-05T10:10:18.098Z,511.88
2022-08-05T10:11:09.069Z,483.75
2022-08-05T10:11:58.056Z,455.62
2022-08-05T10:12:49.437Z,405.00
2022-08-05T10:13:45.644Z,393.75
2022-08-05T10:14:30.313Z,376.88
2022-08-05T10:15:20.027Z,365.62
2022-08-05T10:16:08.029Z,376.88
2022-08-05T10:16:57.997Z,331.88
2022-08-05T10:17:56.626Z,286.88
2022-08-05T10:18:38.970Z,258.75
2022-08-05T10:19:31.895Z,247.50
2022-08-05T10:20:20.005Z,253.12
2022-08-05T10:21:11.953Z,253.12
2022-08-05T10:21:58.978Z,270.00
2022-08-05T10:22:50.799Z,275.62
2022-08-05T10:24:00.113Z,264.38
2022-08-05T10:24:28.919Z,275.62
2022-08-05T10:25:17.900Z,270.00
2022-08-05T10:26:07.900Z,281.25
2022-08-05T10:27:00.538Z,286.88
2022-08-05T10:28:09.364Z,292.50
2022-08-05T10:28:38.956Z,298.12
2022-08-05T10:30:06.706Z,303.75
2022-08-05T10:31:20.200Z,303.75
2022-08-05T10:32:47.176Z,303.75
2022-08-05T10:32:55.633Z,309.38
2022-08-05T10:32:59.673Z,315.00
2022-08-05T10:33:38.811Z,326.25
2022-08-05T10:34:31.045Z,331.88
2022-08-05T10:35:17.811Z,331.88
2022-08-05T10:36:07.791Z,320.62
2022-08-05T10:36:57.783Z,309.38
2022-08-05T10:37:47.761Z,309.38
2022-08-05T10:38:37.761Z,315.00
2022-08-05T10:40:04.263Z,320.62
2022-08-05T10:40:18.835Z,315.00
2022-08-05T10:41:07.756Z,303.75
2022-08-05T10:42:00.856Z,292.50
2022-08-05T10:42:47.711Z,275.62